sensor_id;sensor_type;location;lat;lon;timestamp;P1;durP1;ratioP1;P2;durP2;ratioP2
1691;SDS011;843;52.054;8.552;2023-08-20T00:00:03;13.17;;;11.77;;
1691;SDS011;843;52.054;8.552;2023-08-20T00:02:32;14.80;;;10.70;;
1691;SDS011;843;52.054;8.552;2023-08-20T00:04:59;12.90;;;9.43;;
1691;SDS011;843;52.054;8.552;2023-08-20T00:07:27;13.83;;;10.43;;
1691;SDS011;843;52.054;8.552;2023-08-20T00:09:54;12.40;;;11.20;;
1691;SDS011;843;52.054;8.552;2023-08-20T00:12:22;16.53;;;10.60;;
1691;SDS011;843;52.054;8.552;2023-08-20T00:14:52;12.17;;;10.57;;
1691;SDS011;843;52.054;8.552;2023-08-20T00:17:19;13.07;;;9.90;;
1691;SDS011;843;52.054;8.552;2023-08-20T00:19:46;9.30;;;8.23;;
1691;SDS011;843;52.054;8.552;2023-08-20T00:22:12;9.73;;;7.97;;
1691;SDS011;843;52.054;8.552;2023-08-20T00:24:39;12.23;;;9.47;;
1691;SDS011;843;52.054;8.552;2023-08-20T00:27:06;13.40;;;9.17;;
1691;SDS011;843;52.054;8.552;2023-08-20T00:29:33;13.10;;;8.80;;
1691;SDS011;843;52.054;8.552;2023-08-20T00:32:00;13.93;;;8.77;;
1691;SDS011;843;52.054;8.552;2023-08-20T00:34:26;9.10;;;7.57;;
1691;SDS011;843;52.054;8.552;2023-08-20T00:36:52;13.07;;;10.10;;
1691;SDS011;843;52.054;8.552;2023-08-20T00:39:19;9.43;;;7.50;;
1691;SDS011;843;52.054;8.552;2023-08-20T00:41:45;9.27;;;8.10;;
1691;SDS011;843;52.054;8.552;2023-08-20T00:44:12;10.77;;;8.00;;
1691;SDS011;843;52.054;8.552;2023-08-20T00:46:40;9.77;;;7.30;;
1691;SDS011;843;52.054;8.552;2023-08-20T00:49:06;13.30;;;7.90;;
1691;SDS011;843;52.054;8.552;2023-08-20T00:51:33;9.50;;;7.37;;
1691;SDS011;843;52.054;8.552;2023-08-20T00:54:00;13.00;;;7.17;;
1691;SDS011;843;52.054;8.552;2023-08-20T00:56:26;9.10;;;7.63;;
1691;SDS011;843;52.054;8.552;2023-08-20T00:58:53;11.43;;;8.20;;
1691;SDS011;843;52.054;8.552;2023-08-20T01:01:19;7.60;;;6.80;;
1691;SDS011;843;52.054;8.552;2023-08-20T01:03:47;7.93;;;6.97;;
1691;SDS011;843;52.054;8.552;2023-08-20T01:06:23;10.40;;;7.60;;
1691;SDS011;843;52.054;8.552;2023-08-20T01:08:56;8.83;;;7.03;;
1691;SDS011;843;52.054;8.552;2023-08-20T01:11:25;7.97;;;6.90;;
1691;SDS011;843;52.054;8.552;2023-08-20T01:13:54;8.80;;;7.10;;
1691;SDS011;843;52.054;8.552;2023-08-20T01:16:20;10.47;;;6.30;;
1691;SDS011;843;52.054;8.552;2023-08-20T01:18:48;16.30;;;7.03;;
1691;SDS011;843;52.054;8.552;2023-08-20T01:21:17;7.37;;;6.13;;
1691;SDS011;843;52.054;8.552;2023-08-20T01:23:55;13.93;;;7.63;;
1691;SDS011;843;52.054;8.552;2023-08-20T01:26:31;7.83;;;7.10;;
1691;SDS011;843;52.054;8.552;2023-08-20T01:29:02;7.43;;;6.57;;
1691;SDS011;843;52.054;8.552;2023-08-20T01:31:29;10.57;;;7.17;;
1691;SDS011;843;52.054;8.552;2023-08-20T01:33:56;12.63;;;7.57;;
1691;SDS011;843;52.054;8.552;2023-08-20T01:36:22;10.63;;;7.50;;
1691;SDS011;843;52.054;8.552;2023-08-20T01:38:48;10.30;;;7.40;;
1691;SDS011;843;52.054;8.552;2023-08-20T01:41:16;14.07;;;6.93;;
1691;SDS011;843;52.054;8.552;2023-08-20T01:43:42;12.03;;;7.80;;
1691;SDS011;843;52.054;8.552;2023-08-20T01:46:10;9.80;;;8.30;;
1691;SDS011;843;52.054;8.552;2023-08-20T01:48:37;8.87;;;7.60;;
1691;SDS011;843;52.054;8.552;2023-08-20T01:51:04;10.83;;;7.67;;
1691;SDS011;843;52.054;8.552;2023-08-20T01:53:30;11.00;;;7.50;;
1691;SDS011;843;52.054;8.552;2023-08-20T01:55:56;10.13;;;7.73;;
1691;SDS011;843;52.054;8.552;2023-08-20T01:58:23;8.70;;;7.80;;
1691;SDS011;843;52.054;8.552;2023-08-20T02:00:50;10.03;;;7.77;;
1691;SDS011;843;52.054;8.552;2023-08-20T02:03:17;10.87;;;8.80;;
1691;SDS011;843;52.054;8.552;2023-08-20T02:05:44;9.30;;;8.03;;
1691;SDS011;843;52.054;8.552;2023-08-20T02:08:10;12.23;;;8.60;;
1691;SDS011;843;52.054;8.552;2023-08-20T02:10:37;10.10;;;8.37;;
1691;SDS011;843;52.054;8.552;2023-08-20T02:13:03;10.70;;;7.43;;
1691;SDS011;843;52.054;8.552;2023-08-20T02:15:30;9.17;;;8.20;;
1691;SDS011;843;52.054;8.552;2023-08-20T02:17:56;11.27;;;7.80;;
1691;SDS011;843;52.054;8.552;2023-08-20T02:20:24;9.17;;;8.13;;
1691;SDS011;843;52.054;8.552;2023-08-20T02:22:52;10.70;;;7.83;;
1691;SDS011;843;52.054;8.552;2023-08-20T02:25:18;9.73;;;8.20;;
1691;SDS011;843;52.054;8.552;2023-08-20T02:27:45;9.67;;;7.43;;
1691;SDS011;843;52.054;8.552;2023-08-20T02:30:11;11.87;;;8.33;;
1691;SDS011;843;52.054;8.552;2023-08-20T02:32:38;9.30;;;7.50;;
1691;SDS011;843;52.054;8.552;2023-08-20T02:35:05;10.37;;;7.80;;
1691;SDS011;843;52.054;8.552;2023-08-20T02:37:32;8.57;;;7.27;;
1691;SDS011;843;52.054;8.552;2023-08-20T02:39:59;9.97;;;8.47;;
1691;SDS011;843;52.054;8.552;2023-08-20T02:42:25;11.80;;;8.10;;
1691;SDS011;843;52.054;8.552;2023-08-20T02:44:51;8.40;;;7.60;;
1691;SDS011;843;52.054;8.552;2023-08-20T02:47:18;12.27;;;8.47;;
1691;SDS011;843;52.054;8.552;2023-08-20T02:49:44;13.33;;;8.20;;
1691;SDS011;843;52.054;8.552;2023-08-20T02:52:11;9.13;;;8.23;;
1691;SDS011;843;52.054;8.552;2023-08-20T02:54:38;8.77;;;7.43;;
1691;SDS011;843;52.054;8.552;2023-08-20T02:57:05;13.43;;;8.90;;
1691;SDS011;843;52.054;8.552;2023-08-20T02:59:31;10.40;;;9.30;;
1691;SDS011;843;52.054;8.552;2023-08-20T03:01:57;10.30;;;8.60;;
1691;SDS011;843;52.054;8.552;2023-08-20T03:04:24;10.30;;;8.00;;
1691;SDS011;843;52.054;8.552;2023-08-20T03:06:50;11.77;;;8.60;;
1691;SDS011;843;52.054;8.552;2023-08-20T03:09:17;10.87;;;8.37;;
1691;SDS011;843;52.054;8.552;2023-08-20T03:11:44;14.30;;;8.70;;
1691;SDS011;843;52.054;8.552;2023-08-20T03:14:11;11.70;;;8.57;;
1691;SDS011;843;52.054;8.552;2023-08-20T03:16:37;10.90;;;8.67;;
1691;SDS011;843;52.054;8.552;2023-08-20T03:19:04;14.30;;;8.73;;
1691;SDS011;843;52.054;8.552;2023-08-20T03:21:30;14.07;;;9.27;;
1691;SDS011;843;52.054;8.552;2023-08-20T03:23:56;11.17;;;9.17;;
1691;SDS011;843;52.054;8.552;2023-08-20T03:26:23;13.13;;;9.27;;
1691;SDS011;843;52.054;8.552;2023-08-20T03:28:50;9.50;;;8.43;;
1691;SDS011;843;52.054;8.552;2023-08-20T03:31:17;12.63;;;9.20;;
1691;SDS011;843;52.054;8.552;2023-08-20T03:33:43;10.77;;;8.47;;
1691;SDS011;843;52.054;8.552;2023-08-20T03:36:10;13.40;;;8.13;;
1691;SDS011;843;52.054;8.552;2023-08-20T03:38:36;14.37;;;8.80;;
1691;SDS011;843;52.054;8.552;2023-08-20T03:41:03;10.10;;;8.40;;
1691;SDS011;843;52.054;8.552;2023-08-20T03:43:29;13.80;;;10.10;;
1691;SDS011;843;52.054;8.552;2023-08-20T03:45:57;14.90;;;9.93;;
1691;SDS011;843;52.054;8.552;2023-08-20T03:48:23;14.03;;;9.30;;
1691;SDS011;843;52.054;8.552;2023-08-20T03:50:50;10.20;;;8.80;;
1691;SDS011;843;52.054;8.552;2023-08-20T03:53:16;14.53;;;9.67;;
1691;SDS011;843;52.054;8.552;2023-08-20T03:55:46;10.67;;;8.70;;
1691;SDS011;843;52.054;8.552;2023-08-20T03:58:13;12.57;;;8.63;;
1691;SDS011;843;52.054;8.552;2023-08-20T04:00:39;14.10;;;9.17;;
1691;SDS011;843;52.054;8.552;2023-08-20T04:03:07;11.13;;;8.23;;
1691;SDS011;843;52.054;8.552;2023-08-20T04:05:35;12.07;;;9.40;;
1691;SDS011;843;52.054;8.552;2023-08-20T04:08:01;12.67;;;9.10;;
1691;SDS011;843;52.054;8.552;2023-08-20T04:10:28;16.00;;;8.73;;
1691;SDS011;843;52.054;8.552;2023-08-20T04:12:54;12.50;;;8.93;;
1691;SDS011;843;52.054;8.552;2023-08-20T04:15:21;10.03;;;8.40;;
1691;SDS011;843;52.054;8.552;2023-08-20T04:17:47;12.30;;;9.20;;
1691;SDS011;843;52.054;8.552;2023-08-20T04:20:15;14.17;;;9.63;;
1691;SDS011;843;52.054;8.552;2023-08-20T04:22:42;13.53;;;10.50;;
1691;SDS011;843;52.054;8.552;2023-08-20T04:25:08;11.00;;;9.83;;
1691;SDS011;843;52.054;8.552;2023-08-20T04:27:34;9.97;;;8.43;;
1691;SDS011;843;52.054;8.552;2023-08-20T04:30:01;9.70;;;8.27;;
1691;SDS011;843;52.054;8.552;2023-08-20T04:32:27;11.30;;;9.47;;
1691;SDS011;843;52.054;8.552;2023-08-20T04:34:54;13.40;;;9.67;;
1691;SDS011;843;52.054;8.552;2023-08-20T04:37:21;10.80;;;8.57;;
1691;SDS011;843;52.054;8.552;2023-08-20T04:39:48;10.60;;;8.67;;
1691;SDS011;843;52.054;8.552;2023-08-20T04:42:14;14.80;;;9.27;;
1691;SDS011;843;52.054;8.552;2023-08-20T04:44:41;11.17;;;8.03;;
1691;SDS011;843;52.054;8.552;2023-08-20T04:47:10;12.57;;;9.00;;
1691;SDS011;843;52.054;8.552;2023-08-20T04:49:37;11.00;;;8.80;;
1691;SDS011;843;52.054;8.552;2023-08-20T04:52:03;11.57;;;8.03;;
1691;SDS011;843;52.054;8.552;2023-08-20T04:54:31;9.63;;;8.60;;
1691;SDS011;843;52.054;8.552;2023-08-20T04:56:57;12.20;;;8.07;;
1691;SDS011;843;52.054;8.552;2023-08-20T04:59:24;9.43;;;8.33;;
1691;SDS011;843;52.054;8.552;2023-08-20T05:01:51;12.30;;;8.80;;
1691;SDS011;843;52.054;8.552;2023-08-20T05:04:17;13.17;;;9.27;;
1691;SDS011;843;52.054;8.552;2023-08-20T05:06:44;14.17;;;9.63;;
1691;SDS011;843;52.054;8.552;2023-08-20T05:09:10;9.30;;;8.33;;
1691;SDS011;843;52.054;8.552;2023-08-20T05:11:38;10.00;;;9.10;;
1691;SDS011;843;52.054;8.552;2023-08-20T05:14:05;11.23;;;8.93;;
1691;SDS011;843;52.054;8.552;2023-08-20T05:16:31;10.40;;;8.43;;
1691;SDS011;843;52.054;8.552;2023-08-20T05:18:57;13.67;;;8.97;;
1691;SDS011;843;52.054;8.552;2023-08-20T05:21:24;14.80;;;8.93;;
1691;SDS011;843;52.054;8.552;2023-08-20T05:23:50;8.20;;;7.23;;
1691;SDS011;843;52.054;8.552;2023-08-20T05:26:16;9.40;;;8.30;;
1691;SDS011;843;52.054;8.552;2023-08-20T05:28:44;11.07;;;7.30;;
1691;SDS011;843;52.054;8.552;2023-08-20T05:31:11;10.03;;;7.40;;
1691;SDS011;843;52.054;8.552;2023-08-20T05:33:37;8.23;;;7.43;;
1691;SDS011;843;52.054;8.552;2023-08-20T05:36:04;11.13;;;7.17;;
1691;SDS011;843;52.054;8.552;2023-08-20T05:38:30;10.50;;;7.83;;
1691;SDS011;843;52.054;8.552;2023-08-20T05:40:56;7.97;;;7.17;;
1691;SDS011;843;52.054;8.552;2023-08-20T05:43:23;8.80;;;7.07;;
1691;SDS011;843;52.054;8.552;2023-08-20T05:45:51;9.03;;;6.73;;
1691;SDS011;843;52.054;8.552;2023-08-20T05:48:17;7.80;;;7.10;;
1691;SDS011;843;52.054;8.552;2023-08-20T05:50:44;8.23;;;6.43;;
1691;SDS011;843;52.054;8.552;2023-08-20T05:53:10;9.47;;;7.30;;
1691;SDS011;843;52.054;8.552;2023-08-20T05:55:37;7.23;;;6.33;;
1691;SDS011;843;52.054;8.552;2023-08-20T05:58:04;6.53;;;5.37;;
1691;SDS011;843;52.054;8.552;2023-08-20T06:00:30;7.80;;;5.67;;
1691;SDS011;843;52.054;8.552;2023-08-20T06:02:58;6.47;;;5.70;;
1691;SDS011;843;52.054;8.552;2023-08-20T06:05:24;6.73;;;5.67;;
1691;SDS011;843;52.054;8.552;2023-08-20T06:07:51;7.27;;;6.23;;
1691;SDS011;843;52.054;8.552;2023-08-20T06:10:17;7.90;;;5.67;;
1691;SDS011;843;52.054;8.552;2023-08-20T06:12:43;6.90;;;5.87;;
1691;SDS011;843;52.054;8.552;2023-08-20T06:15:10;5.97;;;5.47;;
1691;SDS011;843;52.054;8.552;2023-08-20T06:17:36;5.77;;;4.90;;
1691;SDS011;843;52.054;8.552;2023-08-20T06:20:05;5.77;;;5.37;;
1691;SDS011;843;52.054;8.552;2023-08-20T06:22:33;6.53;;;5.17;;
1691;SDS011;843;52.054;8.552;2023-08-20T06:24:59;7.40;;;5.40;;
1691;SDS011;843;52.054;8.552;2023-08-20T06:27:26;7.07;;;5.23;;
1691;SDS011;843;52.054;8.552;2023-08-20T06:29:52;6.60;;;5.40;;
1691;SDS011;843;52.054;8.552;2023-08-20T06:32:19;6.53;;;5.13;;
1691;SDS011;843;52.054;8.552;2023-08-20T06:34:45;6.60;;;5.03;;
1691;SDS011;843;52.054;8.552;2023-08-20T06:37:13;6.30;;;5.00;;
1691;SDS011;843;52.054;8.552;2023-08-20T06:39:39;6.03;;;4.80;;
1691;SDS011;843;52.054;8.552;2023-08-20T06:42:06;9.90;;;5.90;;
1691;SDS011;843;52.054;8.552;2023-08-20T06:44:32;6.80;;;5.73;;
1691;SDS011;843;52.054;8.552;2023-08-20T06:47:00;9.73;;;6.73;;
1691;SDS011;843;52.054;8.552;2023-08-20T06:49:26;9.87;;;6.40;;
1691;SDS011;843;52.054;8.552;2023-08-20T06:51:53;6.57;;;6.07;;
1691;SDS011;843;52.054;8.552;2023-08-20T06:54:21;6.40;;;5.77;;
1691;SDS011;843;52.054;8.552;2023-08-20T06:56:47;7.37;;;6.40;;
1691;SDS011;843;52.054;8.552;2023-08-20T06:59:14;8.13;;;6.20;;
1691;SDS011;843;52.054;8.552;2023-08-20T07:01:41;7.60;;;6.27;;
1691;SDS011;843;52.054;8.552;2023-08-20T07:04:08;7.10;;;6.40;;
1691;SDS011;843;52.054;8.552;2023-08-20T07:06:34;7.07;;;6.00;;
1691;SDS011;843;52.054;8.552;2023-08-20T07:09:00;7.00;;;6.30;;
1691;SDS011;843;52.054;8.552;2023-08-20T07:11:30;7.60;;;6.90;;
1691;SDS011;843;52.054;8.552;2023-08-20T07:13:56;7.33;;;6.60;;
1691;SDS011;843;52.054;8.552;2023-08-20T07:16:22;11.30;;;7.03;;
1691;SDS011;843;52.054;8.552;2023-08-20T07:18:49;8.10;;;7.50;;
1691;SDS011;843;52.054;8.552;2023-08-20T07:21:15;9.60;;;7.23;;
1691;SDS011;843;52.054;8.552;2023-08-20T07:23:42;7.33;;;6.60;;
1691;SDS011;843;52.054;8.552;2023-08-20T07:26:10;7.80;;;7.00;;
1691;SDS011;843;52.054;8.552;2023-08-20T07:28:40;9.50;;;6.97;;
1691;SDS011;843;52.054;8.552;2023-08-20T07:31:25;7.37;;;6.57;;
1691;SDS011;843;52.054;8.552;2023-08-20T07:33:52;7.93;;;7.30;;
1691;SDS011;843;52.054;8.552;2023-08-20T07:36:19;7.37;;;6.67;;
1691;SDS011;843;52.054;8.552;2023-08-20T07:38:47;7.60;;;6.40;;
1691;SDS011;843;52.054;8.552;2023-08-20T07:41:13;8.50;;;6.90;;
1691;SDS011;843;52.054;8.552;2023-08-20T07:43:41;7.07;;;6.43;;
1691;SDS011;843;52.054;8.552;2023-08-20T07:46:08;7.83;;;7.23;;
1691;SDS011;843;52.054;8.552;2023-08-20T07:48:34;9.17;;;8.33;;
1691;SDS011;843;52.054;8.552;2023-08-20T07:51:01;10.00;;;7.50;;
1691;SDS011;843;52.054;8.552;2023-08-20T07:53:27;9.57;;;8.27;;
1691;SDS011;843;52.054;8.552;2023-08-20T07:55:54;11.13;;;9.93;;
1691;SDS011;843;52.054;8.552;2023-08-20T07:58:20;10.07;;;9.07;;
1691;SDS011;843;52.054;8.552;2023-08-20T08:00:48;10.63;;;9.03;;
1691;SDS011;843;52.054;8.552;2023-08-20T08:03:15;10.53;;;9.63;;
1691;SDS011;843;52.054;8.552;2023-08-20T08:05:43;10.83;;;9.77;;
1691;SDS011;843;52.054;8.552;2023-08-20T08:08:11;10.00;;;9.10;;
1691;SDS011;843;52.054;8.552;2023-08-20T08:10:38;9.43;;;8.07;;
1691;SDS011;843;52.054;8.552;2023-08-20T08:13:04;9.80;;;8.90;;
1691;SDS011;843;52.054;8.552;2023-08-20T08:15:31;10.17;;;9.00;;
1691;SDS011;843;52.054;8.552;2023-08-20T08:17:58;8.53;;;7.83;;
1691;SDS011;843;52.054;8.552;2023-08-20T08:20:25;12.70;;;11.43;;
1691;SDS011;843;52.054;8.552;2023-08-20T08:22:51;13.17;;;12.07;;
1691;SDS011;843;52.054;8.552;2023-08-20T08:25:17;12.60;;;11.40;;
1691;SDS011;843;52.054;8.552;2023-08-20T08:27:44;15.13;;;13.70;;
1691;SDS011;843;52.054;8.552;2023-08-20T08:30:11;12.17;;;11.17;;
1691;SDS011;843;52.054;8.552;2023-08-20T08:32:37;12.07;;;11.07;;
1691;SDS011;843;52.054;8.552;2023-08-20T08:35:06;13.50;;;12.17;;
1691;SDS011;843;52.054;8.552;2023-08-20T08:37:32;12.53;;;11.43;;
1691;SDS011;843;52.054;8.552;2023-08-20T08:39:59;13.10;;;11.80;;
1691;SDS011;843;52.054;8.552;2023-08-20T08:42:25;12.07;;;11.07;;
1691;SDS011;843;52.054;8.552;2023-08-20T08:44:52;11.50;;;10.30;;
1691;SDS011;843;52.054;8.552;2023-08-20T08:47:18;10.17;;;9.33;;
1691;SDS011;843;52.054;8.552;2023-08-20T08:49:45;11.57;;;10.60;;
1691;SDS011;843;52.054;8.552;2023-08-20T08:52:14;10.80;;;9.90;;
1691;SDS011;843;52.054;8.552;2023-08-20T08:54:40;11.53;;;10.53;;
1691;SDS011;843;52.054;8.552;2023-08-20T08:57:07;9.97;;;9.10;;
1691;SDS011;843;52.054;8.552;2023-08-20T08:59:34;10.53;;;9.60;;
1691;SDS011;843;52.054;8.552;2023-08-20T09:02:00;9.43;;;8.53;;
1691;SDS011;843;52.054;8.552;2023-08-20T09:04:27;10.27;;;9.57;;
1691;SDS011;843;52.054;8.552;2023-08-20T09:06:55;10.43;;;9.47;;
1691;SDS011;843;52.054;8.552;2023-08-20T09:09:23;8.70;;;8.00;;
1691;SDS011;843;52.054;8.552;2023-08-20T09:11:55;9.33;;;8.63;;
1691;SDS011;843;52.054;8.552;2023-08-20T09:14:21;10.20;;;9.30;;
1691;SDS011;843;52.054;8.552;2023-08-20T09:16:53;12.37;;;9.90;;
1691;SDS011;843;52.054;8.552;2023-08-20T09:19:20;11.30;;;10.30;;
1691;SDS011;843;52.054;8.552;2023-08-20T09:21:46;12.23;;;11.03;;
1691;SDS011;843;52.054;8.552;2023-08-20T09:24:13;11.47;;;10.33;;
1691;SDS011;843;52.054;8.552;2023-08-20T09:26:44;11.00;;;10.10;;
1691;SDS011;843;52.054;8.552;2023-08-20T09:29:11;11.23;;;10.33;;
1691;SDS011;843;52.054;8.552;2023-08-20T09:31:38;10.33;;;9.37;;
1691;SDS011;843;52.054;8.552;2023-08-20T09:34:04;10.80;;;9.90;;
1691;SDS011;843;52.054;8.552;2023-08-20T09:36:31;9.80;;;9.00;;
1691;SDS011;843;52.054;8.552;2023-08-20T09:38:58;10.10;;;9.20;;
1691;SDS011;843;52.054;8.552;2023-08-20T09:41:25;9.13;;;8.37;;
1691;SDS011;843;52.054;8.552;2023-08-20T09:43:55;10.40;;;9.50;;
1691;SDS011;843;52.054;8.552;2023-08-20T09:46:22;11.10;;;10.10;;
1691;SDS011;843;52.054;8.552;2023-08-20T09:48:49;10.00;;;9.20;;
1691;SDS011;843;52.054;8.552;2023-08-20T09:51:17;9.90;;;9.00;;
1691;SDS011;843;52.054;8.552;2023-08-20T09:53:49;8.67;;;7.87;;
1691;SDS011;843;52.054;8.552;2023-08-20T09:56:19;8.20;;;7.60;;
1691;SDS011;843;52.054;8.552;2023-08-20T09:58:48;9.10;;;8.20;;
1691;SDS011;843;52.054;8.552;2023-08-20T10:01:16;8.60;;;8.00;;
1691;SDS011;843;52.054;8.552;2023-08-20T10:03:42;7.73;;;7.13;;
1691;SDS011;843;52.054;8.552;2023-08-20T10:06:09;8.40;;;7.70;;
1691;SDS011;843;52.054;8.552;2023-08-20T10:08:37;8.30;;;7.70;;
1691;SDS011;843;52.054;8.552;2023-08-20T10:11:04;7.97;;;7.27;;
1691;SDS011;843;52.054;8.552;2023-08-20T10:13:30;7.73;;;7.03;;
1691;SDS011;843;52.054;8.552;2023-08-20T10:15:57;7.73;;;5.80;;
1691;SDS011;843;52.054;8.552;2023-08-20T10:18:26;6.20;;;5.67;;
1691;SDS011;843;52.054;8.552;2023-08-20T10:20:52;6.60;;;6.20;;
1691;SDS011;843;52.054;8.552;2023-08-20T10:23:19;6.70;;;6.10;;
1691;SDS011;843;52.054;8.552;2023-08-20T10:25:46;6.17;;;5.67;;
1691;SDS011;843;52.054;8.552;2023-08-20T10:28:13;6.00;;;5.40;;
1691;SDS011;843;52.054;8.552;2023-08-20T10:33:22;6.60;;;6.10;;
1691;SDS011;843;52.054;8.552;2023-08-20T10:35:49;6.33;;;5.93;;
1691;SDS011;843;52.054;8.552;2023-08-20T10:38:16;6.50;;;6.00;;
1691;SDS011;843;52.054;8.552;2023-08-20T10:40:46;6.53;;;5.93;;
1691;SDS011;843;52.054;8.552;2023-08-20T10:43:23;6.47;;;5.90;;
1691;SDS011;843;52.054;8.552;2023-08-20T10:46:01;5.80;;;5.30;;
1691;SDS011;843;52.054;8.552;2023-08-20T10:48:28;6.03;;;5.63;;
1691;SDS011;843;52.054;8.552;2023-08-20T10:50:57;7.50;;;6.90;;
1691;SDS011;843;52.054;8.552;2023-08-20T10:53:23;7.37;;;6.70;;
1691;SDS011;843;52.054;8.552;2023-08-20T10:55:50;7.20;;;6.70;;
1691;SDS011;843;52.054;8.552;2023-08-20T10:58:16;7.23;;;6.73;;
1691;SDS011;843;52.054;8.552;2023-08-20T11:00:43;6.80;;;6.40;;
1691;SDS011;843;52.054;8.552;2023-08-20T11:03:09;6.87;;;6.30;;
1691;SDS011;843;52.054;8.552;2023-08-20T11:05:36;7.47;;;6.90;;
1691;SDS011;843;52.054;8.552;2023-08-20T11:08:04;6.83;;;6.23;;
1691;SDS011;843;52.054;8.552;2023-08-20T11:10:33;7.73;;;6.73;;
1691;SDS011;843;52.054;8.552;2023-08-20T11:12:59;7.53;;;7.00;;
1691;SDS011;843;52.054;8.552;2023-08-20T11:15:28;8.40;;;7.80;;
1691;SDS011;843;52.054;8.552;2023-08-20T11:17:54;8.47;;;7.87;;
1691;SDS011;843;52.054;8.552;2023-08-20T11:20:21;8.17;;;7.47;;
1691;SDS011;843;52.054;8.552;2023-08-20T11:22:47;8.37;;;7.67;;
1691;SDS011;843;52.054;8.552;2023-08-20T11:25:15;8.10;;;7.50;;
1691;SDS011;843;52.054;8.552;2023-08-20T11:27:41;7.80;;;7.20;;
1691;SDS011;843;52.054;8.552;2023-08-20T11:30:08;7.50;;;6.80;;
1691;SDS011;843;52.054;8.552;2023-08-20T11:32:37;7.50;;;6.90;;
1691;SDS011;843;52.054;8.552;2023-08-20T11:35:03;7.23;;;6.73;;
1691;SDS011;843;52.054;8.552;2023-08-20T11:37:30;7.00;;;6.47;;
1691;SDS011;843;52.054;8.552;2023-08-20T11:39:57;7.90;;;7.30;;
1691;SDS011;843;52.054;8.552;2023-08-20T11:42:25;9.30;;;7.20;;
1691;SDS011;843;52.054;8.552;2023-08-20T11:44:54;7.60;;;7.10;;
1691;SDS011;843;52.054;8.552;2023-08-20T11:47:21;8.57;;;7.87;;
1691;SDS011;843;52.054;8.552;2023-08-20T11:49:47;7.83;;;7.23;;
1691;SDS011;843;52.054;8.552;2023-08-20T11:52:14;7.13;;;6.70;;
1691;SDS011;843;52.054;8.552;2023-08-20T11:54:42;8.20;;;7.40;;
1691;SDS011;843;52.054;8.552;2023-08-20T11:57:08;8.40;;;7.90;;
1691;SDS011;843;52.054;8.552;2023-08-20T11:59:36;9.20;;;8.10;;
1691;SDS011;843;52.054;8.552;2023-08-20T12:02:03;7.97;;;7.13;;
1691;SDS011;843;52.054;8.552;2023-08-20T12:04:30;12.60;;;8.77;;
1691;SDS011;843;52.054;8.552;2023-08-20T12:07:03;8.70;;;8.00;;
1691;SDS011;843;52.054;8.552;2023-08-20T12:09:30;7.80;;;7.30;;
1691;SDS011;843;52.054;8.552;2023-08-20T12:11:56;8.33;;;7.63;;
1691;SDS011;843;52.054;8.552;2023-08-20T12:14:23;8.93;;;8.23;;
1691;SDS011;843;52.054;8.552;2023-08-20T12:16:52;8.73;;;7.97;;
1691;SDS011;843;52.054;8.552;2023-08-20T12:19:19;9.53;;;8.73;;
1691;SDS011;843;52.054;8.552;2023-08-20T12:21:46;8.23;;;7.53;;
1691;SDS011;843;52.054;8.552;2023-08-20T12:24:12;8.17;;;7.67;;
1691;SDS011;843;52.054;8.552;2023-08-20T12:26:39;9.17;;;8.37;;
1691;SDS011;843;52.054;8.552;2023-08-20T12:29:05;9.77;;;8.83;;
1691;SDS011;843;52.054;8.552;2023-08-20T12:31:32;8.73;;;8.03;;
1691;SDS011;843;52.054;8.552;2023-08-20T12:34:00;8.83;;;8.10;;
1691;SDS011;843;52.054;8.552;2023-08-20T12:36:27;9.13;;;8.40;;
1691;SDS011;843;52.054;8.552;2023-08-20T12:38:54;9.40;;;8.60;;
1691;SDS011;843;52.054;8.552;2023-08-20T12:41:20;10.10;;;9.40;;
1691;SDS011;843;52.054;8.552;2023-08-20T12:43:47;9.23;;;8.47;;
1691;SDS011;843;52.054;8.552;2023-08-20T12:46:13;9.97;;;9.17;;
1691;SDS011;843;52.054;8.552;2023-08-20T12:48:40;9.13;;;8.40;;
1691;SDS011;843;52.054;8.552;2023-08-20T12:51:08;9.27;;;8.47;;
1691;SDS011;843;52.054;8.552;2023-08-20T12:53:38;8.90;;;8.10;;
1691;SDS011;843;52.054;8.552;2023-08-20T12:56:05;8.47;;;7.77;;
1691;SDS011;843;52.054;8.552;2023-08-20T12:58:31;8.67;;;7.87;;
1691;SDS011;843;52.054;8.552;2023-08-20T13:00:57;9.60;;;8.00;;
1691;SDS011;843;52.054;8.552;2023-08-20T13:03:24;8.63;;;7.83;;
1691;SDS011;843;52.054;8.552;2023-08-20T13:05:51;7.33;;;6.77;;
1691;SDS011;843;52.054;8.552;2023-08-20T13:08:19;8.83;;;8.13;;
1691;SDS011;843;52.054;8.552;2023-08-20T13:10:47;8.83;;;8.13;;
1691;SDS011;843;52.054;8.552;2023-08-20T13:13:14;9.27;;;8.53;;
1691;SDS011;843;52.054;8.552;2023-08-20T13:15:41;7.50;;;6.80;;
1691;SDS011;843;52.054;8.552;2023-08-20T13:18:08;8.50;;;7.90;;
1691;SDS011;843;52.054;8.552;2023-08-20T13:20:35;8.03;;;7.37;;
1691;SDS011;843;52.054;8.552;2023-08-20T13:23:01;7.80;;;7.00;;
1691;SDS011;843;52.054;8.552;2023-08-20T13:25:29;8.10;;;7.33;;
1691;SDS011;843;52.054;8.552;2023-08-20T13:27:56;8.20;;;7.60;;
1691;SDS011;843;52.054;8.552;2023-08-20T13:30:22;7.77;;;7.27;;
1691;SDS011;843;52.054;8.552;2023-08-20T13:32:49;7.80;;;7.10;;
1691;SDS011;843;52.054;8.552;2023-08-20T13:35:15;8.40;;;7.60;;
1691;SDS011;843;52.054;8.552;2023-08-20T13:37:42;8.13;;;7.53;;
1691;SDS011;843;52.054;8.552;2023-08-20T13:40:08;7.20;;;6.70;;
1691;SDS011;843;52.054;8.552;2023-08-20T13:42:36;8.23;;;7.43;;
1691;SDS011;843;52.054;8.552;2023-08-20T13:45:03;8.33;;;7.67;;
1691;SDS011;843;52.054;8.552;2023-08-20T13:47:30;9.43;;;8.77;;
1691;SDS011;843;52.054;8.552;2023-08-20T13:49:57;8.20;;;7.50;;
1691;SDS011;843;52.054;8.552;2023-08-20T13:52:23;9.27;;;8.17;;
1691;SDS011;843;52.054;8.552;2023-08-20T13:54:50;8.83;;;8.13;;
1691;SDS011;843;52.054;8.552;2023-08-20T13:57:16;8.50;;;7.90;;
1691;SDS011;843;52.054;8.552;2023-08-20T13:59:44;8.80;;;8.10;;
1691;SDS011;843;52.054;8.552;2023-08-20T14:02:10;10.00;;;9.00;;
1691;SDS011;843;52.054;8.552;2023-08-20T14:04:37;10.13;;;9.33;;
1691;SDS011;843;52.054;8.552;2023-08-20T14:07:03;9.27;;;8.57;;
1691;SDS011;843;52.054;8.552;2023-08-20T14:09:30;9.37;;;8.63;;
1691;SDS011;843;52.054;8.552;2023-08-20T14:11:56;10.20;;;9.30;;
1691;SDS011;843;52.054;8.552;2023-08-20T14:14:23;9.50;;;8.80;;
1691;SDS011;843;52.054;8.552;2023-08-20T14:16:50;9.70;;;9.00;;
1691;SDS011;843;52.054;8.552;2023-08-20T14:19:17;9.53;;;8.83;;
1691;SDS011;843;52.054;8.552;2023-08-20T14:21:43;9.80;;;9.10;;
1691;SDS011;843;52.054;8.552;2023-08-20T14:24:10;9.53;;;8.83;;
1691;SDS011;843;52.054;8.552;2023-08-20T14:26:36;9.10;;;8.40;;
1691;SDS011;843;52.054;8.552;2023-08-20T14:29:03;9.37;;;8.60;;
1691;SDS011;843;52.054;8.552;2023-08-20T14:31:30;9.60;;;8.80;;
1691;SDS011;843;52.054;8.552;2023-08-20T14:33:58;9.33;;;8.63;;
1691;SDS011;843;52.054;8.552;2023-08-20T14:36:24;9.10;;;8.40;;
1691;SDS011;843;52.054;8.552;2023-08-20T14:38:51;9.97;;;9.27;;
1691;SDS011;843;52.054;8.552;2023-08-20T14:41:17;9.30;;;8.60;;
1691;SDS011;843;52.054;8.552;2023-08-20T14:43:43;8.90;;;8.10;;
1691;SDS011;843;52.054;8.552;2023-08-20T14:46:10;8.73;;;7.90;;
1691;SDS011;843;52.054;8.552;2023-08-20T14:48:36;9.10;;;8.40;;
1691;SDS011;843;52.054;8.552;2023-08-20T14:51:07;10.03;;;9.13;;
1691;SDS011;843;52.054;8.552;2023-08-20T14:53:34;8.77;;;7.97;;
1691;SDS011;843;52.054;8.552;2023-08-20T14:56:00;8.37;;;7.77;;
1691;SDS011;843;52.054;8.552;2023-08-20T14:58:28;8.73;;;8.10;;
1691;SDS011;843;52.054;8.552;2023-08-20T15:00:54;8.77;;;8.03;;
1691;SDS011;843;52.054;8.552;2023-08-20T15:03:21;8.70;;;8.10;;
1691;SDS011;843;52.054;8.552;2023-08-20T15:05:47;8.20;;;7.40;;
1691;SDS011;843;52.054;8.552;2023-08-20T15:08:15;9.53;;;8.80;;
1691;SDS011;843;52.054;8.552;2023-08-20T15:10:42;8.83;;;8.00;;
1691;SDS011;843;52.054;8.552;2023-08-20T15:13:08;8.77;;;8.17;;
1691;SDS011;843;52.054;8.552;2023-08-20T15:15:34;9.50;;;8.80;;
1691;SDS011;843;52.054;8.552;2023-08-20T15:18:01;9.83;;;8.97;;
1691;SDS011;843;52.054;8.552;2023-08-20T15:20:27;8.20;;;7.67;;
1691;SDS011;843;52.054;8.552;2023-08-20T15:22:54;9.17;;;8.37;;